createdAt,value
2022-07-29T00:00:09.865Z,51.44
2022-07-29T00:01:07.886Z,52.24
2022-07-29T00:02:08.853Z,52.14
2022-07-29T00:03:07.891Z,52.14
2022-07-29T00:04:07.897Z,52.14
2022-07-29T00:05:07.845Z,51.94
2022-07-29T00:06:07.844Z,52.14
2022-07-29T00:07:07.814Z,52.34
2022-07-29T00:08:10.749Z,52.17
2022-07-29T00:09:08.798Z,52.24
2022-07-29T00:10:07.801Z,52.14
2022-07-29T00:11:07.815Z,52.04
2022-07-29T00:12:07.777Z,52.04
2022-07-29T00:13:07.766Z,52.17
2022-07-29T00:14:07.811Z,52.26
2022-07-29T00:15:07.752Z,51.74
2022-07-29T00:16:07.808Z,51.76
2022-07-29T00:17:07.744Z,51.84
2022-07-29T00:18:07.736Z,52.87
2022-07-29T00:19:07.944Z,52.94
2022-07-29T00:20:07.709Z,52.26
2022-07-29T00:21:07.733Z,52.77
2022-07-29T00:22:07.705Z,52.77
2022-07-29T00:23:07.691Z,52.67
2022-07-29T00:24:08.689Z,52.47
2022-07-29T00:25:07.675Z,52.77
2022-07-29T00:26:07.708Z,52.67
2022-07-29T00:27:07.666Z,52.37
2022-07-29T00:28:07.656Z,52.47
2022-07-29T00:29:33.073Z,52.87
2022-07-29T00:30:09.639Z,52.47
2022-07-29T00:31:07.694Z,52.57
2022-07-29T00:32:07.651Z,52.57
2022-07-29T00:33:09.180Z,52.57
2022-07-29T00:34:08.605Z,52.67
2022-07-29T00:35:07.603Z,52.67
2022-07-29T00:36:07.618Z,53.27
2022-07-29T00:37:07.859Z,53.27
2022-07-29T00:38:07.577Z,53.37
2022-07-29T00:39:07.572Z,53.00
2022-07-29T00:40:07.562Z,53.27
2022-07-29T00:41:07.578Z,53.27
2022-07-29T00:42:07.545Z,53.57
2022-07-29T00:43:07.537Z,53.17
2022-07-29T00:44:07.531Z,53.37
2022-07-29T00:45:07.515Z,53.37
2022-07-29T00:46:08.546Z,53.77
2022-07-29T00:47:07.627Z,53.40
2022-07-29T00:48:07.540Z,53.80
2022-07-29T00:49:07.553Z,53.30
2022-07-29T00:50:07.487Z,53.50
2022-07-29T00:51:07.514Z,53.80
2022-07-29T00:52:07.484Z,53.07
2022-07-29T00:53:07.465Z,53.60
2022-07-29T00:54:07.457Z,53.09
2022-07-29T00:55:08.727Z,53.40
2022-07-29T00:56:08.501Z,53.30
2022-07-29T00:57:07.437Z,52.89
2022-07-29T00:58:07.433Z,53.80
2022-07-29T00:59:07.420Z,54.00
2022-07-29T01:00:07.412Z,54.00
2022-07-29T01:01:07.479Z,54.10
2022-07-29T01:02:07.449Z,54.00
2022-07-29T01:03:07.392Z,53.60
2022-07-29T01:04:07.381Z,53.83
2022-07-29T01:05:07.381Z,53.50
2022-07-29T01:06:07.384Z,53.90
2022-07-29T01:07:07.383Z,54.00
2022-07-29T01:08:07.352Z,54.13
2022-07-29T01:09:07.353Z,54.13
2022-07-29T01:10:07.341Z,54.10
2022-07-29T01:11:07.326Z,53.92
2022-07-29T01:12:07.353Z,53.72
2022-07-29T01:13:08.524Z,54.03
2022-07-29T01:14:07.311Z,54.10
2022-07-29T01:15:07.300Z,54.33
2022-07-29T01:16:07.379Z,54.03
2022-07-29T01:17:07.313Z,53.83
2022-07-29T01:18:07.277Z,54.13
2022-07-29T01:19:39.918Z,53.72
2022-07-29T01:20:07.272Z,54.43
2022-07-29T01:21:07.259Z,54.93
2022-07-29T01:22:07.278Z,54.93
2022-07-29T01:23:07.246Z,54.73
2022-07-29T01:24:07.233Z,54.43
2022-07-29T01:25:07.229Z,55.13
2022-07-29T01:26:07.226Z,55.03
2022-07-29T01:27:07.241Z,55.06
2022-07-29T01:28:07.209Z,55.03
2022-07-29T01:29:08.279Z,54.93
2022-07-29T01:30:07.190Z,55.46
2022-07-29T01:31:07.235Z,55.56
2022-07-29T01:32:07.254Z,55.66
2022-07-29T01:33:07.162Z,55.26
2022-07-29T01:34:07.169Z,55.23
2022-07-29T01:35:07.270Z,55.36
2022-07-29T01:36:07.145Z,55.06
2022-07-29T01:37:07.162Z,55.36
2022-07-29T01:38:07.121Z,55.66
2022-07-29T01:39:07.121Z,55.46
2022-07-29T01:40:07.109Z,55.46
2022-07-29T01:41:07.102Z,55.96
2022-07-29T01:42:07.145Z,55.56
2022-07-29T01:43:07.099Z,55.56
2022-07-29T01:44:07.083Z,55.46
2022-07-29T01:45:07.068Z,55.36
2022-07-29T01:46:07.103Z,55.96
2022-07-29T01:47:07.085Z,55.96
2022-07-29T01:48:07.047Z,55.56
2022-07-29T01:49:07.085Z,55.76
2022-07-29T01:50:07.040Z,55.56
2022-07-29T01:51:07.026Z,55.87
2022-07-29T01:52:07.041Z,55.76
2022-07-29T01:53:07.010Z,55.69
2022-07-29T01:54:06.995Z,55.76
2022-07-29T01:55:07.032Z,55.76
2022-07-29T01:56:06.987Z,55.56
2022-07-29T01:57:07.005Z,55.59
2022-07-29T01:58:06.994Z,55.56
2022-07-29T01:59:06.966Z,56.47
2022-07-29T02:00:06.964Z,56.47
2022-07-29T02:01:06.954Z,56.40
2022-07-29T02:02:07.043Z,55.89
2022-07-29T02:03:06.935Z,56.16
2022-07-29T02:04:06.936Z,56.09
2022-07-29T02:05:06.978Z,56.09
2022-07-29T02:06:06.914Z,56.27
2022-07-29T02:07:06.936Z,55.87
2022-07-29T02:08:06.901Z,55.87
2022-07-29T02:09:06.889Z,56.16
2022-07-29T02:10:06.884Z,56.16
2022-07-29T02:11:06.878Z,56.07
2022-07-29T02:12:06.898Z,56.07
2022-07-29T02:13:06.863Z,55.76
2022-07-29T02:14:06.855Z,56.09
2022-07-29T02:15:06.846Z,56.07
2022-07-29T02:16:06.909Z,56.09
2022-07-29T02:17:07.064Z,56.16
2022-07-29T02:18:06.821Z,55.76
2022-07-29T02:19:06.817Z,56.09
2022-07-29T02:20:06.805Z,55.99
2022-07-29T02:21:06.825Z,55.87
2022-07-29T02:22:07.818Z,55.99
2022-07-29T02:23:06.780Z,56.07
2022-07-29T02:24:06.777Z,56.40
2022-07-29T02:25:06.764Z,56.07
2022-07-29T02:26:07.761Z,55.87
2022-07-29T02:27:06.784Z,56.09
2022-07-29T02:28:06.752Z,55.99
2022-07-29T02:29:06.738Z,56.20
2022-07-29T02:30:06.733Z,55.96
2022-07-29T02:31:06.763Z,56.07
2022-07-29T02:32:06.750Z,55.96
2022-07-29T02:33:06.705Z,56.20
2022-07-29T02:34:06.707Z,56.09
2022-07-29T02:35:06.692Z,56.29
2022-07-29T02:36:06.695Z,56.90
2022-07-29T02:37:06.705Z,56.90
2022-07-29T02:38:06.676Z,55.79
2022-07-29T02:39:06.671Z,56.09
2022-07-29T02:40:06.669Z,57.40
2022-07-29T02:41:06.654Z,56.90
2022-07-29T02:42:06.673Z,57.12
2022-07-29T02:43:06.639Z,57.00
2022-07-29T02:44:06.634Z,56.90
2022-07-29T02:45:06.621Z,57.03
2022-07-29T02:46:06.637Z,57.53
2022-07-29T02:47:07.632Z,57.23
2022-07-29T02:48:06.602Z,57.00
2022-07-29T02:49:06.651Z,57.32
2022-07-29T02:50:06.585Z,57.43
2022-07-29T02:51:06.582Z,57.43
2022-07-29T02:52:06.596Z,57.03
2022-07-29T02:53:06.562Z,57.00
2022-07-29T02:54:06.555Z,57.32
2022-07-29T02:55:06.553Z,56.92
2022-07-29T02:56:06.534Z,57.32
2022-07-29T02:57:06.561Z,57.32
2022-07-29T02:58:06.526Z,57.53
2022-07-29T02:59:06.525Z,57.73
2022-07-29T03:00:06.507Z,57.83
2022-07-29T03:01:06.622Z,57.53
2022-07-29T03:02:06.562Z,57.43
2022-07-29T03:03:06.489Z,57.63
2022-07-29T03:04:06.485Z,57.43
2022-07-29T03:05:06.519Z,57.83
2022-07-29T03:06:06.455Z,57.32
2022-07-29T03:07:06.475Z,57.23
2022-07-29T03:08:06.447Z,57.43
2022-07-29T03:09:12.043Z,57.83
2022-07-29T03:10:10.868Z,57.73
2022-07-29T03:11:07.417Z,57.43
2022-07-29T03:12:06.441Z,57.73
2022-07-29T03:13:06.412Z,57.53
2022-07-29T03:14:06.397Z,58.03
2022-07-29T03:15:06.392Z,58.34
2022-07-29T03:16:06.430Z,58.56
2022-07-29T03:17:06.400Z,57.73
2022-07-29T03:18:06.369Z,57.53
2022-07-29T03:19:06.359Z,57.86
2022-07-29T03:20:06.347Z,58.34
2022-07-29T03:21:06.338Z,58.34
2022-07-29T03:22:06.360Z,57.96
2022-07-29T03:23:06.326Z,57.76
2022-07-29T03:24:10.308Z,57.86
2022-07-29T03:25:07.310Z,57.96
2022-07-29T03:26:06.298Z,57.96
2022-07-29T03:27:06.331Z,57.96
2022-07-29T03:28:06.289Z,58.23
2022-07-29T03:29:06.274Z,57.96
2022-07-29T03:30:06.269Z,57.86
2022-07-29T03:31:06.296Z,57.86
2022-07-29T03:32:08.043Z,57.96
2022-07-29T03:33:13.219Z,58.36
2022-07-29T03:34:07.236Z,58.44
2022-07-29T03:35:06.228Z,57.96
2022-07-29T03:36:06.229Z,57.96
2022-07-29T03:37:06.236Z,57.76
2022-07-29T03:38:07.205Z,57.96
2022-07-29T03:39:06.200Z,57.65
2022-07-29T03:40:06.187Z,58.26
2022-07-29T03:41:06.180Z,58.26
2022-07-29T03:42:06.202Z,58.26
2022-07-29T03:43:06.171Z,59.47
2022-07-29T03:44:06.159Z,59.70
2022-07-29T03:45:06.153Z,59.09
2022-07-29T03:46:06.180Z,59.50
2022-07-29T03:47:06.164Z,59.09
2022-07-29T03:48:06.130Z,59.07
2022-07-29T03:49:06.179Z,58.89
2022-07-29T03:50:06.113Z,59.27
2022-07-29T03:51:06.107Z,59.07
2022-07-29T03:52:06.130Z,59.17
2022-07-29T03:53:06.086Z,59.47
2022-07-29T03:54:09.924Z,58.67
2022-07-29T03:55:07.073Z,59.00
2022-07-29T03:56:06.062Z,58.76
2022-07-29T03:57:06.049Z,58.26
2022-07-29T03:58:06.084Z,59.47
2022-07-29T03:59:06.039Z,58.67
2022-07-29T04:00:06.036Z,58.36
2022-07-29T04:01:06.019Z,59.07
2022-07-29T04:02:06.064Z,59.09
2022-07-29T04:03:06.112Z,59.17
2022-07-29T04:04:06.995Z,59.30
2022-07-29T04:05:05.993Z,59.70
2022-07-29T04:06:05.986Z,59.30
2022-07-29T04:07:05.984Z,59.09
2022-07-29T04:08:05.985Z,59.47
2022-07-29T04:09:06.962Z,59.30
2022-07-29T04:10:05.963Z,59.30
2022-07-29T04:11:05.947Z,59.40
2022-07-29T04:12:05.946Z,59.60
2022-07-29T04:13:05.955Z,59.80
2022-07-29T04:14:05.916Z,59.50
2022-07-29T04:15:05.911Z,59.60
2022-07-29T04:16:05.939Z,59.50
2022-07-29T04:17:05.895Z,59.40
2022-07-29T04:18:05.909Z,59.60
2022-07-29T04:19:05.941Z,59.70
2022-07-29T04:20:05.873Z,59.70
2022-07-29T04:21:05.871Z,59.90
2022-07-29T04:22:05.859Z,59.60
2022-07-29T04:23:05.874Z,59.60
2022-07-29T04:24:05.845Z,60.21
2022-07-29T04:25:05.845Z,60.94
2022-07-29T04:26:05.825Z,60.51
2022-07-29T04:27:05.823Z,60.53
2022-07-29T04:28:05.838Z,61.44
2022-07-29T04:29:05.811Z,60.74
2022-07-29T04:30:05.791Z,61.14
2022-07-29T04:31:05.846Z,60.61
2022-07-29T04:32:05.799Z,60.94
2022-07-29T04:33:05.799Z,60.51
2022-07-29T04:34:05.769Z,60.61
2022-07-29T04:35:05.765Z,61.14
2022-07-29T04:36:05.752Z,61.32
2022-07-29T04:37:06.747Z,61.21
2022-07-29T04:38:05.763Z,61.11
2022-07-29T04:39:05.728Z,61.52
2022-07-29T04:40:05.715Z,60.61
2022-07-29T04:41:05.712Z,61.21
2022-07-29T04:42:05.696Z,61.21
2022-07-29T04:43:06.724Z,60.91
2022-07-29T04:44:05.682Z,60.64
2022-07-29T04:45:05.686Z,60.71
2022-07-29T04:46:05.731Z,60.58
2022-07-29T04:47:05.669Z,61.11
2022-07-29T04:48:05.680Z,60.41
2022-07-29T04:49:05.701Z,61.01
2022-07-29T04:50:05.654Z,60.81
2022-07-29T04:51:05.635Z,60.91
2022-07-29T04:52:05.633Z,60.17
2022-07-29T04:53:05.944Z,60.05
2022-07-29T04:54:05.609Z,59.64
2022-07-29T04:55:05.604Z,59.62
2022-07-29T04:56:05.596Z,59.55
2022-07-29T04:57:05.586Z,59.97
2022-07-29T04:58:05.606Z,59.88
2022-07-29T04:59:05.569Z,60.78
2022-07-29T05:00:05.564Z,61.01
2022-07-29T05:01:05.657Z,60.91
2022-07-29T05:02:05.636Z,60.71
2022-07-29T05:03:05.666Z,60.81
2022-07-29T05:04:05.532Z,60.81
2022-07-29T05:05:06.531Z,60.74
2022-07-29T05:06:05.524Z,61.24
2022-07-29T05:07:05.510Z,61.14
2022-07-29T05:08:05.533Z,61.21
2022-07-29T05:09:05.500Z,61.21
2022-07-29T05:10:05.494Z,61.21
2022-07-29T05:11:11.831Z,60.81
2022-07-29T05:12:06.504Z,61.01
2022-07-29T05:13:05.500Z,60.71
2022-07-29T05:14:05.466Z,60.41
2022-07-29T05:15:05.487Z,60.91
2022-07-29T05:16:05.468Z,60.31
2022-07-29T05:17:05.441Z,60.41
2022-07-29T05:18:05.455Z,61.01
2022-07-29T05:19:05.422Z,60.68
2022-07-29T05:20:05.422Z,60.48
2022-07-29T05:21:05.413Z,60.91
2022-07-29T05:22:05.407Z,60.98
2022-07-29T05:23:05.426Z,60.98
2022-07-29T05:24:05.388Z,60.48
2022-07-29T05:25:09.013Z,60.88
2022-07-29T05:26:06.375Z,60.31
2022-07-29T05:27:05.369Z,60.71
2022-07-29T05:28:05.386Z,60.71
2022-07-29T05:29:05.351Z,60.81
2022-07-29T05:30:05.346Z,60.88
2022-07-29T05:31:05.406Z,60.68
2022-07-29T05:32:05.328Z,60.68
2022-07-29T05:33:05.359Z,60.98
2022-07-29T05:34:05.309Z,60.88
2022-07-29T05:35:05.308Z,60.48
2022-07-29T05:36:05.309Z,60.68
2022-07-29T05:37:05.295Z,60.58
2022-07-29T05:38:05.318Z,60.38
2022-07-29T05:39:05.288Z,60.68
2022-07-29T05:40:05.279Z,60.58
2022-07-29T05:41:05.275Z,61.11
2022-07-29T05:42:05.257Z,60.78
2022-07-29T05:43:05.280Z,60.58
2022-07-29T05:44:05.241Z,60.58
2022-07-29T05:45:05.231Z,60.68
2022-07-29T05:46:05.280Z,60.85
2022-07-29T05:47:05.214Z,60.68
2022-07-29T05:48:05.211Z,60.58
2022-07-29T05:49:05.294Z,60.68
2022-07-29T05:50:05.196Z,60.68
2022-07-29T05:51:05.190Z,60.58
2022-07-29T05:52:05.179Z,60.58
2022-07-29T05:53:19.017Z,61.29
2022-07-29T05:54:06.190Z,60.98
2022-07-29T05:55:05.165Z,60.48
2022-07-29T05:56:05.152Z,60.88
2022-07-29T05:57:05.151Z,60.88
2022-07-29T05:58:05.147Z,60.78
2022-07-29T05:59:05.152Z,60.68
2022-07-29T06:00:06.166Z,60.88
2022-07-29T06:01:05.179Z,60.68
2022-07-29T06:02:05.103Z,61.08
2022-07-29T06:03:05.098Z,60.88
2022-07-29T06:04:05.177Z,60.68
2022-07-29T06:05:05.078Z,60.78
2022-07-29T06:06:06.075Z,60.38
2022-07-29T06:07:05.060Z,60.48
2022-07-29T06:08:05.056Z,61.18
2022-07-29T06:09:12.178Z,60.88
2022-07-29T06:10:06.040Z,60.85
2022-07-29T06:11:05.034Z,60.65
2022-07-29T06:12:05.021Z,60.58
2022-07-29T06:13:05.017Z,60.68
2022-07-29T06:14:05.030Z,60.45
2022-07-29T06:15:05.003Z,60.96
2022-07-29T06:16:05.025Z,60.35
2022-07-29T06:17:05.033Z,60.45
2022-07-29T06:18:04.990Z,60.75
2022-07-29T06:19:04.987Z,59.64
2022-07-29T06:20:07.500Z,59.55
2022-07-29T06:21:04.957Z,59.72
2022-07-29T06:22:04.946Z,60.05
2022-07-29T06:23:04.937Z,59.95
2022-07-29T06:24:04.962Z,59.95
2022-07-29T06:25:04.925Z,60.35
2022-07-29T06:26:04.914Z,59.75
2022-07-29T06:27:04.907Z,59.34
2022-07-29T06:28:04.903Z,59.64
2022-07-29T06:29:04.911Z,59.55
2022-07-29T06:30:05.384Z,59.82
2022-07-29T06:31:05.977Z,59.92
2022-07-29T06:32:04.874Z,59.72
2022-07-29T06:33:04.861Z,60.02
2022-07-29T06:34:04.873Z,60.52
2022-07-29T06:35:37.530Z,60.42
2022-07-29T06:36:06.833Z,59.62
2022-07-29T06:37:04.834Z,60.02
2022-07-29T06:38:12.032Z,58.91
2022-07-29T06:39:05.846Z,59.92
2022-07-29T06:40:04.804Z,59.52
2022-07-29T06:41:04.955Z,59.44
2022-07-29T06:42:04.794Z,59.75
2022-07-29T06:43:04.790Z,60.02
2022-07-29T06:44:04.805Z,59.82
2022-07-29T06:45:09.195Z,59.52
2022-07-29T06:46:05.804Z,59.42
2022-07-29T06:47:04.750Z,59.82
2022-07-29T06:48:04.747Z,59.44
2022-07-29T06:49:04.812Z,59.31
2022-07-29T06:50:04.731Z,59.42
2022-07-29T06:51:04.722Z,59.01
2022-07-29T06:52:04.717Z,59.79
2022-07-29T06:53:04.709Z,58.98
2022-07-29T06:54:04.733Z,59.06
2022-07-29T06:55:04.696Z,59.26
2022-07-29T06:56:04.690Z,58.73
2022-07-29T06:57:04.683Z,59.26
2022-07-29T06:58:04.668Z,58.86
2022-07-29T06:59:04.693Z,60.06
2022-07-29T07:00:04.663Z,58.86
2022-07-29T07:01:04.709Z,59.26
2022-07-29T07:02:04.684Z,59.66
2022-07-29T07:03:04.635Z,59.66
2022-07-29T07:04:04.652Z,59.16
2022-07-29T07:05:04.611Z,59.76
2022-07-29T07:06:04.616Z,59.56
2022-07-29T07:07:04.598Z,60.33
2022-07-29T07:08:04.591Z,59.83
2022-07-29T07:09:04.614Z,60.27
2022-07-29T07:10:04.574Z,59.76
2022-07-29T07:11:04.569Z,60.89
2022-07-29T07:12:04.570Z,60.60
2022-07-29T07:13:04.560Z,60.69
2022-07-29T07:14:04.650Z,60.60
2022-07-29T07:15:04.546Z,61.10
2022-07-29T07:16:04.556Z,60.49
2022-07-29T07:17:04.571Z,60.89
2022-07-29T07:18:04.525Z,60.29
2022-07-29T07:19:36.451Z,60.39
2022-07-29T07:20:04.504Z,60.69
2022-07-29T07:21:04.505Z,60.93
2022-07-29T07:22:04.491Z,61.43
2022-07-29T07:23:04.481Z,61.53
2022-07-29T07:24:04.511Z,61.33
2022-07-29T07:25:04.465Z,61.13
2022-07-29T07:26:04.462Z,62.64
2022-07-29T07:27:04.471Z,63.85
2022-07-29T07:28:04.459Z,63.78
2022-07-29T07:29:04.457Z,64.81
2022-07-29T07:30:04.423Z,67.54
2022-07-29T07:31:04.419Z,67.67
2022-07-29T07:32:04.441Z,67.36
2022-07-29T07:33:04.411Z,68.07
2022-07-29T07:34:04.516Z,68.48
2022-07-29T07:35:04.403Z,68.37
2022-07-29T07:36:04.378Z,69.52
2022-07-29T07:37:04.369Z,70.12
2022-07-29T07:38:04.365Z,71.33
2022-07-29T07:39:04.355Z,71.33
2022-07-29T07:40:04.370Z,72.04
2022-07-29T07:41:04.342Z,72.85
2022-07-29T07:42:04.326Z,72.34
2022-07-29T07:43:04.325Z,73.45
2022-07-29T07:44:04.324Z,73.65
2022-07-29T07:45:13.542Z,75.47
2022-07-29T07:46:06.402Z,77.42
2022-07-29T07:47:12.232Z,77.19
2022-07-29T07:48:05.290Z,78.39
2022-07-29T07:49:04.309Z,77.12
2022-07-29T07:50:04.290Z,78.80
2022-07-29T07:51:04.260Z,75.95
2022-07-29T07:52:04.254Z,75.74
2022-07-29T07:53:04.246Z,75.71
2022-07-29T07:54:04.232Z,75.60
2022-07-29T07:55:04.269Z,75.81
2022-07-29T07:56:12.671Z,75.71
2022-07-29T07:57:06.222Z,75.60
2022-07-29T07:58:04.203Z,74.36
2022-07-29T07:59:04.204Z,73.96
2022-07-29T08:00:04.296Z,74.16
2022-07-29T08:01:04.269Z,73.92
2022-07-29T08:02:04.253Z,74.16
2022-07-29T08:03:04.198Z,75.57
2022-07-29T08:04:05.163Z,75.07
2022-07-29T08:05:04.197Z,75.37
2022-07-29T08:06:04.148Z,75.57
2022-07-29T08:07:04.135Z,75.84
2022-07-29T08:08:04.127Z,75.63
2022-07-29T08:09:27.670Z,76.14
2022-07-29T08:10:06.143Z,75.60
2022-07-29T08:11:08.737Z,76.14
2022-07-29T08:12:06.097Z,74.02
2022-07-29T08:13:04.083Z,73.35
2022-07-29T08:14:04.085Z,73.15
2022-07-29T08:15:04.100Z,74.05
2022-07-29T08:16:04.108Z,73.01
2022-07-29T08:17:04.086Z,72.91
2022-07-29T08:18:08.453Z,71.73
2022-07-29T08:19:05.062Z,71.91
2022-07-29T08:20:04.061Z,71.70
2022-07-29T08:21:04.030Z,72.31
2022-07-29T08:22:04.023Z,72.07
2022-07-29T08:23:04.012Z,70.76
2022-07-29T08:24:07.268Z,71.26
2022-07-29T08:25:05.028Z,68.77
2022-07-29T08:26:03.990Z,69.85
2022-07-29T08:27:03.987Z,70.15
2022-07-29T08:28:03.979Z,69.55
2022-07-29T08:29:03.968Z,70.66
2022-07-29T08:30:03.991Z,69.42
2022-07-29T08:31:03.955Z,69.55
2022-07-29T08:32:03.979Z,70.12
2022-07-29T08:33:03.929Z,70.53
2022-07-29T08:34:04.925Z,68.61
2022-07-29T08:35:03.959Z,69.01
2022-07-29T08:36:03.915Z,67.10
2022-07-29T08:37:03.913Z,68.81
2022-07-29T08:38:03.917Z,68.71
2022-07-29T08:39:03.899Z,69.72
2022-07-29T08:40:03.917Z,69.32
2022-07-29T08:41:03.883Z,68.71
2022-07-29T08:42:03.877Z,68.71
2022-07-29T08:43:03.883Z,70.02
2022-07-29T08:44:03.860Z,68.58
2022-07-29T08:45:03.880Z,68.04
2022-07-29T08:46:03.885Z,67.34
2022-07-29T08:47:03.846Z,67.14
2022-07-29T08:48:03.853Z,68.21
2022-07-29T08:49:03.886Z,67.81
2022-07-29T08:50:03.839Z,66.80
2022-07-29T08:51:04.372Z,68.71
2022-07-29T08:52:03.799Z,68.88
2022-07-29T08:53:03.793Z,68.78
2022-07-29T08:54:03.793Z,68.59
2022-07-29T08:55:03.807Z,68.85
2022-07-29T08:56:03.781Z,68.85
2022-07-29T08:57:03.767Z,67.41
2022-07-29T08:58:03.758Z,67.41
2022-07-29T08:59:04.858Z,65.47
2022-07-29T09:00:08.174Z,66.55
2022-07-29T09:01:07.732Z,66.58
2022-07-29T09:02:04.773Z,66.12
2022-07-29T09:03:03.724Z,64.18
2022-07-29T09:04:03.778Z,61.05
2022-07-29T09:05:03.737Z,62.55
2022-07-29T09:06:03.690Z,62.02
2022-07-29T09:07:03.690Z,61.85
2022-07-29T09:08:03.689Z,63.34
2022-07-29T09:09:03.675Z,63.28
2022-07-29T09:10:03.701Z,63.57
2022-07-29T09:11:04.056Z,62.64
2022-07-29T09:12:03.647Z,62.67
2022-07-29T09:13:03.639Z,62.17
2022-07-29T09:14:03.632Z,63.67
2022-07-29T09:15:03.664Z,62.97
2022-07-29T09:16:08.893Z,64.28
2022-07-29T09:17:05.978Z,63.64
2022-07-29T09:18:03.605Z,64.54
2022-07-29T09:19:03.598Z,63.51
2022-07-29T09:20:03.605Z,62.74
2022-07-29T09:21:03.604Z,62.74
2022-07-29T09:22:04.160Z,62.97
2022-07-29T09:23:03.571Z,63.67
2022-07-29T09:24:03.563Z,62.97
2022-07-29T09:25:03.551Z,63.34
2022-07-29T09:26:03.565Z,63.31
2022-07-29T09:27:03.543Z,63.54
2022-07-29T09:28:03.539Z,63.42
2022-07-29T09:29:03.534Z,63.21
2022-07-29T09:30:03.516Z,62.98
2022-07-29T09:31:03.551Z,61.78
2022-07-29T09:32:03.557Z,62.58
2022-07-29T09:33:03.497Z,62.88
2022-07-29T09:34:03.483Z,63.39
2022-07-29T09:35:03.478Z,63.06
2022-07-29T09:36:03.512Z,61.65
2022-07-29T09:37:03.470Z,62.25
2022-07-29T09:38:03.463Z,62.05
2022-07-29T09:39:03.447Z,60.95
2022-07-29T09:40:03.435Z,61.05
2022-07-29T09:41:05.794Z,60.25
2022-07-29T09:42:03.425Z,59.25
2022-07-29T09:43:03.427Z,60.78
2022-07-29T09:44:03.417Z,61.11
2022-07-29T09:45:03.401Z,61.28
2022-07-29T09:46:03.426Z,61.25
2022-07-29T09:47:03.396Z,60.62
2022-07-29T09:48:03.373Z,60.72
2022-07-29T09:49:03.467Z,60.72
2022-07-29T09:50:03.366Z,60.66
2022-07-29T09:51:03.384Z,59.56
2022-07-29T09:52:03.376Z,60.10
2022-07-29T09:53:03.344Z,59.98
2022-07-29T09:54:03.335Z,61.38
2022-07-29T09:55:03.337Z,63.15
2022-07-29T09:56:03.350Z,61.49
2022-07-29T09:57:03.329Z,60.16
2022-07-29T09:58:03.319Z,59.34
2022-07-29T09:59:03.296Z,58.41
2022-07-29T10:00:03.286Z,58.58
2022-07-29T10:01:03.347Z,57.58
2022-07-29T10:02:03.282Z,58.08
2022-07-29T10:03:03.314Z,58.58
2022-07-29T10:04:03.260Z,58.75
2022-07-29T10:05:03.248Z,57.26
2022-07-29T10:06:03.276Z,59.55
2022-07-29T10:07:05.185Z,60.02
2022-07-29T10:08:04.225Z,59.19
2022-07-29T10:09:03.221Z,59.47
2022-07-29T10:10:03.226Z,57.97
2022-07-29T10:11:03.247Z,57.84
2022-07-29T10:12:03.197Z,57.34
2022-07-29T10:13:07.980Z,57.51
2022-07-29T10:14:05.191Z,57.18
2022-07-29T10:15:03.176Z,56.96
2022-07-29T10:16:03.286Z,55.19
2022-07-29T10:17:03.184Z,57.46
2022-07-29T10:18:03.155Z,58.59
2022-07-29T10:19:03.151Z,58.82
2022-07-29T10:20:03.155Z,58.62
2022-07-29T10:21:03.138Z,60.22
2022-07-29T10:22:03.517Z,60.36
2022-07-29T10:23:03.097Z,57.01
2022-07-29T10:24:04.108Z,56.38
2022-07-29T10:25:03.093Z,56.36
2022-07-29T10:26:03.084Z,55.06
2022-07-29T10:27:03.111Z,56.61
2022-07-29T10:28:03.071Z,57.46
2022-07-29T10:29:03.093Z,57.64
2022-07-29T10:30:03.079Z,55.64
2022-07-29T10:31:03.086Z,56.51
2022-07-29T10:32:03.075Z,55.09
2022-07-29T10:33:03.036Z,55.74
2022-07-29T10:34:03.028Z,55.41
2022-07-29T10:35:03.038Z,54.29
2022-07-29T10:36:03.029Z,54.99
2022-07-29T10:37:03.052Z,54.69
2022-07-29T10:38:03.006Z,55.41
2022-07-29T10:39:03.189Z,55.34
2022-07-29T10:40:02.982Z,56.71
2022-07-29T10:41:02.978Z,55.49
2022-07-29T10:43:03.953Z,55.34
2022-07-29T10:44:02.951Z,56.57
2022-07-29T10:45:02.941Z,56.46
2022-07-29T10:46:02.931Z,56.87
2022-07-29T10:47:03.043Z,56.54
2022-07-29T10:48:03.923Z,55.54
2022-07-29T10:49:03.001Z,56.41
2022-07-29T10:50:02.907Z,55.09
2022-07-29T10:51:04.005Z,54.09
2022-07-29T10:52:03.461Z,53.47
2022-07-29T10:53:02.886Z,55.46
2022-07-29T10:54:02.882Z,54.64
2022-07-29T10:55:03.018Z,54.14
2022-07-29T10:56:06.508Z,53.81
2022-07-29T10:57:02.894Z,53.52
2022-07-29T10:58:02.861Z,53.39
2022-07-29T10:59:02.879Z,54.28
2022-07-29T11:00:02.867Z,53.27
2022-07-29T11:01:02.828Z,52.92
2022-07-29T11:02:35.315Z,53.44
2022-07-29T11:03:10.976Z,54.71
2022-07-29T11:04:03.797Z,54.56
2022-07-29T11:05:02.787Z,51.54
2022-07-29T11:06:02.795Z,52.69
2022-07-29T11:07:04.140Z,52.02
2022-07-29T11:08:02.782Z,53.14
2022-07-29T11:09:02.768Z,54.11
2022-07-29T11:10:02.775Z,53.31
2022-07-29T11:11:02.743Z,52.19
2022-07-29T11:12:02.928Z,52.22
2022-07-29T11:13:02.756Z,52.44
2022-07-29T11:14:02.718Z,53.27
2022-07-29T11:15:02.720Z,52.74
2022-07-29T11:16:02.711Z,52.29
2022-07-29T11:17:02.733Z,51.29
2022-07-29T11:18:02.691Z,51.95
2022-07-29T11:19:02.689Z,51.52
2022-07-29T11:20:02.705Z,50.63
2022-07-29T11:21:02.689Z,50.55
2022-07-29T11:22:02.756Z,51.35
2022-07-29T11:23:02.682Z,51.45
2022-07-29T11:24:02.647Z,52.14
2022-07-29T11:25:02.668Z,50.50
2022-07-29T11:26:02.658Z,49.96
2022-07-29T11:27:02.985Z,49.31
2022-07-29T11:28:02.658Z,50.45
2022-07-29T11:29:02.626Z,51.29
2022-07-29T11:30:03.401Z,52.17
2022-07-29T11:31:02.600Z,50.45
2022-07-29T11:32:02.593Z,51.42
2022-07-29T11:33:02.655Z,50.80
2022-07-29T11:34:05.661Z,50.20
2022-07-29T11:35:03.566Z,49.46
2022-07-29T11:36:03.564Z,48.25
2022-07-29T11:37:03.576Z,48.80
2022-07-29T11:38:02.569Z,46.69
2022-07-29T11:39:02.559Z,49.53
2022-07-29T11:40:02.566Z,50.23
2022-07-29T11:41:03.524Z,50.55
2022-07-29T11:42:05.150Z,50.35
2022-07-29T11:43:07.206Z,50.20
2022-07-29T11:44:02.500Z,49.86
2022-07-29T11:45:08.766Z,48.05
2022-07-29T11:46:03.491Z,47.65
2022-07-29T11:47:02.480Z,48.47
2022-07-29T11:48:28.499Z,48.44
2022-07-29T11:49:04.495Z,47.73
2022-07-29T11:50:03.456Z,47.43
2022-07-29T11:51:03.449Z,47.95
2022-07-29T11:52:03.253Z,48.25
2022-07-29T11:53:02.465Z,47.83
2022-07-29T11:54:05.423Z,47.41
2022-07-29T11:55:09.576Z,47.19
2022-07-29T11:56:03.784Z,46.05
2022-07-29T11:57:02.403Z,46.17
2022-07-29T11:58:03.817Z,47.28
2022-07-29T11:59:02.389Z,47.85
2022-07-29T12:00:09.524Z,49.07
2022-07-29T12:02:32.975Z,47.63
2022-07-29T12:03:04.450Z,49.14
2022-07-29T12:04:02.374Z,48.44
2022-07-29T12:05:02.349Z,47.61
2022-07-29T12:06:03.351Z,48.42
2022-07-29T12:07:03.725Z,49.24
2022-07-29T12:08:02.365Z,47.68
2022-07-29T12:09:02.359Z,47.74
2022-07-29T12:10:02.312Z,46.23
2022-07-29T12:11:02.301Z,45.63
2022-07-29T12:12:05.446Z,45.93
2022-07-29T12:13:03.319Z,45.79
2022-07-29T12:14:02.288Z,46.06
2022-07-29T12:15:02.309Z,44.95
2022-07-29T12:16:02.437Z,44.65
2022-07-29T12:17:02.281Z,44.68
2022-07-29T12:18:04.011Z,45.61
2022-07-29T12:19:03.235Z,46.28
2022-07-29T12:20:02.542Z,45.17
2022-07-29T12:21:03.129Z,45.19
2022-07-29T12:22:02.586Z,45.29
2022-07-29T12:23:02.240Z,44.80
2022-07-29T12:24:08.965Z,44.96
2022-07-29T12:25:31.975Z,46.37
2022-07-29T12:26:03.190Z,46.25
2022-07-29T12:27:02.456Z,45.73
2022-07-29T12:28:02.215Z,45.89
2022-07-29T12:29:02.425Z,45.37
2022-07-29T12:30:02.152Z,43.84
2022-07-29T12:31:02.194Z,43.94
2022-07-29T12:32:02.451Z,44.34
2022-07-29T12:33:02.130Z,44.78
2022-07-29T12:34:02.156Z,45.09
2022-07-29T12:35:02.110Z,44.94
2022-07-29T12:36:07.222Z,46.30
2022-07-29T12:37:04.107Z,45.96
2022-07-29T12:38:02.109Z,45.62
2022-07-29T12:39:02.117Z,43.80
2022-07-29T12:40:02.088Z,43.78
2022-07-29T12:41:02.081Z,42.30
2022-07-29T12:42:04.118Z,42.60
2022-07-29T12:43:02.070Z,41.22
2022-07-29T12:44:02.098Z,42.32
2022-07-29T12:45:02.044Z,42.24
2022-07-29T12:46:02.039Z,42.26
2022-07-29T12:47:02.029Z,42.78
2022-07-29T12:48:02.041Z,43.45
2022-07-29T12:49:04.056Z,42.34
2022-07-29T12:50:02.016Z,42.34
2022-07-29T12:51:02.003Z,42.54
2022-07-29T12:52:01.998Z,43.55
2022-07-29T12:53:01.992Z,43.35
2022-07-29T12:54:02.030Z,43.47